Weather reports worldwide

Advertisment
San Vicente, Spain (8017): temperature & dewpoint: 10.01.2018 08:00:00 - 16.01.2018 08:00:00 (CET)San Vicente, Spain (8017): wind speed & gusts: 10.01.2018 08:00:00 - 16.01.2018 08:00:00 (CET)San Vicente, Spain (8017): wind direction: 10.01.2018 08:00:00 - 16.01.2018 08:00:00 (CET)San Vicente, Spain (8017): reduced air pressure: 10.01.2018 08:00:00 - 16.01.2018 08:00:00 (CET)San Vicente, Spain (8017): precipitation: 10.01.2018 08:00:00 - 16.01.2018 08:00:00 (CET)
Date & Time tt [°C] td [°C] ff [km/h] ff [kn] fx [km/h] fx [kn] dd ppp [hPa] rr [mm]
16.01.2018 08:00:00 12,9 11,7 18 10 31 17 W 1023,1 0,0
16.01.2018 07:00:00 13,1 11,3 8 4 32 17 W 1022,6 -
16.01.2018 06:00:00 12,9 11,3 13 7 31 17 W 1021,9 0,0
16.01.2018 05:00:00 13,0 11,2 10 5 23 12 W 1021,8 0,0
16.01.2018 04:00:00 13,8 11,3 11 6 26 14 W 1021,5 0,0
16.01.2018 03:00:00 14,3 10,5 11 6 32 17 W 1021,0 0,0
16.01.2018 02:00:00 14,8 10,2 11 6 39 21 W 1021,0 0,0
16.01.2018 01:00:00 14,8 10,8 14 7 37 20 W 1021,4 -
16.01.2018 00:00:00 12,5 7,6 6 4 15 8 SSW 1021,4 0,0
15.01.2018 23:00:00 12,2 7,3 9 5 19 10 SSW 1020,9 0,0
15.01.2018 22:00:00 12,9 8,4 6 3 22 12 SW 1021,2 0,0
15.01.2018 21:00:00 11,4 6,4 9 5 15 8 SSW 1021,1 0,0
15.01.2018 20:00:00 11,6 5,9 9 5 14 7 SSW 1020,4 0,0
15.01.2018 19:00:00 12,0 6,2 9 5 16 9 S 1020,2 -
15.01.2018 18:00:00 11,5 8,0 12 6 21 12 S 1020,3 0,0
15.01.2018 17:00:00 12,0 6,5 8 5 12 6 S 1020,5 0,0
15.01.2018 16:00:00 12,0 6,5 8 5 11 6 S 1020,3 0,0
15.01.2018 15:00:00 12,5 6,7 6 3 11 6 SSW 1020,5 0,0
15.01.2018 14:00:00 12,2 6,8 7 4 10 6 S 1021,3 0,0
15.01.2018 13:00:00 11,7 8,0 6 3 12 7 S 1022,3 -
15.01.2018 12:00:00 10,3 6,2 7 4 13 7 S 1023,6 0,0
15.01.2018 11:00:00 6,8 5,0 8 5 15 8 S 1024,1 0,0
15.01.2018 10:00:00 6,5 4,3 9 5 15 8 SSW 1024,6 0,0
15.01.2018 09:00:00 5,8 3,9 5 3 14 8 SSW 1024,5 0,0
15.01.2018 08:00:00 5,6 3,9 10 5 15 8 S 1023,9 0,0
15.01.2018 07:00:00 6,2 4,8 4 2 16 9 SSW 1023,7 -
15.01.2018 06:00:00 5,7 4,6 8 4 16 9 SSW 1023,4 0,0
15.01.2018 05:00:00 6,2 4,8 11 6 14 8 S 1023,8 0,0
15.01.2018 04:00:00 7,2 5,6 6 4 13 7 SSW 1023,9 0,0
15.01.2018 03:00:00 8,1 6,4 6 3 10 5 SSW 1024,1 0,1
15.01.2018 02:00:00 8,1 6,7 3 1 13 7 SSW 1024,3 0,0
15.01.2018 01:00:00 8,3 6,7 4 2 11 6 SSW 1024,4 -
15.01.2018 00:00:00 8,6 6,7 1 1 18 10 SSW 1024,4 0,0
14.01.2018 23:00:00 9,1 7,0 12 7 25 13 W 1023,9 0,1
14.01.2018 22:00:00 9,0 7,1 8 5 26 14 WSW 1023,1 0,2
14.01.2018 21:00:00 8,8 7,0 8 5 29 16 W 1022,8 0,4
14.01.2018 20:00:00 9,3 7,3 20 11 37 20 W 1022,1 0,5
14.01.2018 19:00:00 9,4 7,6 15 8 29 16 W 1021,5 -
14.01.2018 18:00:00 9,8 7,0 22 12 40 22 W 1020,8 0,0
14.01.2018 17:00:00 10,5 6,7 22 12 36 19 WNW 1019,8 0,0
14.01.2018 16:00:00 10,5 6,8 22 12 43 23 WNW 1019,5 0,0
14.01.2018 15:00:00 11,0 6,5 26 14 41 22 WNW 1018,9 0,0
14.01.2018 14:00:00 10,9 5,5 24 13 39 21 WNW 1019,0 0,0
14.01.2018 13:00:00 10,7 5,0 23 12 36 19 W 1019,1 -
14.01.2018 12:00:00 10,3 5,5 13 7 26 14 W 1019,6 0,0
14.01.2018 11:00:00 9,1 5,5 4 2 14 8 SSW 1019,2 0,0
14.01.2018 10:00:00 6,8 4,5 6 3 22 12 SW 1018,7 0,0
14.01.2018 09:00:00 4,6 2,9 6 3 16 9 SSW 1018,0 0,0
14.01.2018 08:00:00 5,2 3,0 6 3 16 8 SSW 1017,4 0,0
14.01.2018 07:00:00 6,1 3,2 7 4 29 16 SW 1017,1 -
14.01.2018 06:00:00 6,3 3,9 4 2 21 11 SW 1017,0 0,0
14.01.2018 05:00:00 7,0 4,5 6 4 23 12 WSW 1016,6 0,0
14.01.2018 04:00:00 6,2 4,6 5 3 14 8 SSW 1016,8 0,0
14.01.2018 03:00:00 6,3 5,0 5 3 13 7 SSW 1016,4 0,0
14.01.2018 02:00:00 7,7 5,3 5 3 27 15 WSW 1016,4 0,0
14.01.2018 01:00:00 9,8 7,3 21 11 40 22 W 1016,4 -
14.01.2018 00:00:00 9,3 6,2 10 5 39 21 W 1016,6 0,1
13.01.2018 23:00:00 9,1 6,4 8 5 18 10 W 1016,3 0,0
13.01.2018 22:00:00 8,8 7,3 10 5 22 12 WSW 1016,0 0,0
13.01.2018 21:00:00 8,5 7,1 5 3 50 27 WSW 1015,8 1,8
13.01.2018 20:00:00 9,6 8,0 26 14 44 24 WNW 1015,3 0,9
13.01.2018 19:00:00 9,5 8,1 21 11 32 17 WNW 1014,8 -
13.01.2018 18:00:00 8,1 7,1 6 3 12 7 SSW 1014,3 0,3
13.01.2018 17:00:00 8,1 7,1 6 3 10 6 S 1014,2 1,0
13.01.2018 16:00:00 8,0 7,0 8 4 12 7 S 1014,0 0,8
13.01.2018 15:00:00 7,7 6,7 4 2 9 5 SW 1014,1 0,5
13.01.2018 14:00:00 8,0 7,0 5 3 8 5 S 1014,0 0,4
13.01.2018 13:00:00 7,9 6,5 5 3 13 7 S 1014,9 -
13.01.2018 12:00:00 7,2 5,6 9 5 15 8 SSW 1015,5 0,5
13.01.2018 11:00:00 7,0 4,6 11 6 16 8 SSW 1014,8 0,3
13.01.2018 10:00:00 7,9 4,6 8 4 16 9 S 1014,0 0,0
13.01.2018 09:00:00 8,6 4,5 6 3 13 7 SSW 1013,8 0,0
13.01.2018 08:00:00 8,1 4,5 6 4 26 14 SSW 1013,8 0,0
13.01.2018 07:00:00 8,2 4,5 7 4 19 10 WSW 1013,8 -
13.01.2018 06:00:00 7,1 3,0 6 3 16 9 WSW 1013,6 0,0
13.01.2018 05:00:00 6,4 3,2 4 2 16 9 SSW 1013,4 0,0
13.01.2018 04:00:00 5,8 3,8 12 7 15 8 SSW 1013,7 0,0
13.01.2018 03:00:00 6,5 3,8 6 3 14 8 SW 1014,6 0,0
13.01.2018 02:00:00 6,4 4,8 5 3 14 7 SW 1015,1 0,0
13.01.2018 01:00:00 6,3 4,8 8 5 16 9 SSW 1016,2 -
13.01.2018 00:00:00 6,3 5,3 12 7 15 8 SSW 1017,1 0,0
12.01.2018 23:00:00 6,9 5,8 10 6 14 7 SSW 1018,2 0,0
12.01.2018 22:00:00 7,5 6,4 9 5 12 6 S 1019,0 0,0
12.01.2018 21:00:00 8,4 7,3 9 5 12 6 S 1019,9 0,0
12.01.2018 20:00:00 9,0 7,6 7 4 11 6 SSW 1020,4 0,0
12.01.2018 19:00:00 9,5 8,1 8 4 11 6 SSW 1020,9 -
12.01.2018 18:00:00 10,5 8,3 4 2 12 7 S 1021,3 0,0
12.01.2018 17:00:00 11,2 8,8 6 3 16 9 E 1021,5 0,0
12.01.2018 16:00:00 11,4 8,4 8 5 17 9 ENE 1021,7 0,0
12.01.2018 15:00:00 12,0 7,7 9 5 14 8 ENE 1022,1 0,0
12.01.2018 14:00:00 12,0 7,7 6 4 11 6 ENE 1022,6 0,0
12.01.2018 13:00:00 11,2 7,3 3 2 8 4 NNE 1024,0 -
12.01.2018 12:00:00 10,5 7,0 6 3 13 7 S 1025,2 0,0
12.01.2018 11:00:00 9,1 5,9 9 5 16 9 SSW 1025,7 0,0
12.01.2018 10:00:00 6,5 4,5 9 5 18 10 SSW 1025,9 0,0
12.01.2018 09:00:00 5,4 4,1 13 7 16 9 SSW 1025,4 0,0
12.01.2018 08:00:00 6,1 4,6 11 6 15 8 S 1025,9 0,0
12.01.2018 07:00:00 8,0 4,6 8 5 15 8 SSW 1025,3 -
12.01.2018 06:00:00 8,6 5,3 3 1 14 8 SSW 1025,3 0,0
12.01.2018 05:00:00 9,3 6,1 3 2 11 6 SSW 1025,7 0,0
12.01.2018 04:00:00 9,4 6,1 3 2 14 8 SW 1026,0 0,0
12.01.2018 03:00:00 10,2 6,4 6 4 22 12 WSW 1026,3 0,0
12.01.2018 02:00:00 10,6 7,8 16 8 31 17 W 1026,4 0,0
12.01.2018 01:00:00 10,3 8,1 17 9 38 21 W 1026,0 -
12.01.2018 00:00:00 10,2 8,1 24 13 41 22 W 1026,0 0,0
11.01.2018 23:00:00 9,9 8,4 14 8 34 19 W 1025,6 0,2
11.01.2018 22:00:00 9,7 8,3 15 8 39 21 W 1025,4 0,1
11.01.2018 21:00:00 9,5 8,3 17 9 37 20 W 1024,7 1,1
11.01.2018 20:00:00 9,3 7,8 22 12 50 27 W 1024,4 0,5
11.01.2018 19:00:00 9,8 7,3 30 16 58 31 W 1023,5 -
11.01.2018 18:00:00 10,3 6,2 31 17 63 34 W 1022,5 0,0
11.01.2018 17:00:00 10,5 4,8 35 19 69 38 W 1021,3 0,0
11.01.2018 16:00:00 10,5 4,1 43 23 72 39 W 1020,2 0,0
11.01.2018 15:00:00 10,7 3,8 28 15 61 33 W 1020,0 0,0
11.01.2018 14:00:00 10,5 3,6 26 14 65 35 W 1020,0 0,1
11.01.2018 13:00:00 9,9 4,1 20 11 47 26 W 1020,3 -
11.01.2018 12:00:00 8,4 5,3 5 3 53 29 SW 1021,0 0,7
11.01.2018 11:00:00 8,1 4,6 22 12 54 29 W 1020,9 0,3
11.01.2018 10:00:00 6,8 4,8 6 3 61 33 WSW 1020,0 0,2
11.01.2018 09:00:00 6,8 4,8 24 13 52 28 W 1020,0 0,5
11.01.2018 08:00:00 6,7 4,5 13 7 53 28 W 1019,2 0,8
11.01.2018 07:00:00 5,9 3,9 4 2 63 34 SSW 1018,0 -
11.01.2018 06:00:00 6,1 4,1 24 13 64 35 W 1017,5 1,0
11.01.2018 05:00:00 6,0 4,3 20 11 56 31 W 1017,7 2,8
11.01.2018 04:00:00 6,3 3,8 18 10 55 30 W 1017,7 1,1
11.01.2018 03:00:00 7,4 2,5 6 4 61 33 WSW 1016,4 0,0
11.01.2018 02:00:00 9,2 2,1 9 5 29 16 W 1016,1 0,0
11.01.2018 01:00:00 9,0 3,0 14 8 34 18 W 1016,1 -
11.01.2018 00:00:00 9,2 0,6 10 5 29 16 W 1015,9 0,0
10.01.2018 23:00:00 9,9 1,5 18 10 39 21 W 1015,9 0,0
10.01.2018 22:00:00 9,9 1,5 22 12 54 29 W 1016,0 0,0
10.01.2018 21:00:00 10,1 1,3 32 17 58 31 W 1015,6 0,0
10.01.2018 20:00:00 9,7 0,9 22 12 55 30 W 1015,2 0,0
10.01.2018 19:00:00 7,9 3,6 18 10 82 45 W 1015,2 -
10.01.2018 18:00:00 8,9 5,6 53 29 88 47 W 1013,8 0,0
10.01.2018 17:00:00 9,5 5,8 32 17 67 36 W 1012,4 0,1
10.01.2018 16:00:00 10,1 6,7 12 7 34 18 W 1011,5 0,0
10.01.2018 15:00:00 10,0 6,4 22 12 69 38 W 1011,0 0,1
10.01.2018 14:00:00 13,1 3,8 4 2 14 7 SSW 1008,4 0,0
10.01.2018 13:00:00 12,0 2,5 5 3 23 12 SSW 1009,8 -
10.01.2018 12:00:00 11,4 5,0 8 4 20 11 SE 1009,8 0,0
10.01.2018 11:00:00 9,4 5,0 7 4 16 9 S 1011,3 0,0
10.01.2018 10:00:00 5,5 3,4 13 7 18 10 S 1012,2 0,0
10.01.2018 09:00:00 3,9 2,5 16 8 19 10 SSW 1012,7 0,0
10.01.2018 08:00:00 4,1 2,7 16 8 19 10 SSW 1013,3 0,0

tt = temperature
td = dewpoint
ff = wind speed
fx = gusts
dd = wind direction
ppp = reduced air pressure
rr = precipitation

Next stations